createdAt,value
2022-11-16T06:05:16.160Z,6.00
2022-11-16T06:08:01.649Z,6.00
2022-11-16T06:10:47.181Z,5.90
2022-11-16T06:13:33.462Z,5.90
2022-11-16T06:16:19.746Z,5.90
2022-11-16T06:19:05.501Z,5.80
2022-11-16T06:21:50.813Z,5.80
2022-11-16T06:24:36.230Z,5.80
2022-11-16T06:27:21.749Z,5.80
2022-11-16T06:30:08.461Z,5.80
2022-11-16T06:32:54.210Z,5.80
2022-11-16T06:35:39.691Z,5.80
2022-11-16T14:35:39.542Z,5.20
2022-11-16T14:38:54.594Z,5.20
2022-11-16T14:41:45.554Z,5.10
2022-11-16T14:44:37.989Z,5.10
2022-11-16T14:47:30.795Z,5.10
2022-11-16T14:50:25.310Z,5.10
2022-11-16T14:53:16.995Z,5.00
2022-11-16T14:56:10.452Z,5.00
2022-11-16T14:58:59.985Z,5.00
2022-11-16T15:01:45.905Z,5.00
2022-11-16T15:04:32.481Z,4.90
2022-11-16T15:07:26.992Z,4.90
2022-11-16T15:10:25.547Z,4.90
2022-11-16T15:13:10.885Z,4.90
2022-11-16T15:16:16.546Z,4.90
2022-11-16T15:19:02.785Z,4.90
2022-11-16T15:22:02.954Z,4.80
2022-11-16T15:25:01.419Z,4.80
2022-11-16T15:27:46.918Z,4.90
2022-11-16T15:30:36.367Z,4.90
2022-11-16T15:33:38.109Z,4.80
2022-11-16T15:36:39.108Z,4.80
2022-11-16T15:39:33.111Z,4.70
2022-11-16T15:42:18.894Z,4.70
2022-11-16T15:45:19.716Z,4.60
2022-11-16T15:48:06.106Z,4.60
2022-11-16T15:51:21.699Z,4.60
2022-11-16T15:54:35.849Z,4.60
2022-11-16T15:57:23.885Z,4.50
2022-11-16T16:00:23.356Z,4.50
2022-11-16T16:03:29.196Z,4.40
2022-11-16T16:06:15.081Z,4.40
2022-11-16T16:09:06.236Z,4.30
2022-11-16T16:11:59.153Z,4.30
2022-11-16T16:14:45.859Z,4.20
2022-11-16T16:17:31.389Z,4.20
2022-11-16T16:20:29.874Z,4.20
2022-11-16T16:23:15.641Z,4.10
2022-11-16T16:26:04.345Z,4.10
2022-11-16T16:28:50.655Z,4.00
2022-11-16T16:31:35.961Z,3.90
2022-11-16T16:34:21.496Z,3.90
2022-11-16T16:37:11.127Z,3.90
2022-11-16T16:39:57.859Z,3.90
2022-11-16T16:42:43.992Z,3.80
2022-11-16T16:45:41.724Z,3.80
2022-11-16T16:48:27.350Z,3.80
2022-11-16T16:51:13.229Z,3.80
2022-11-16T16:53:58.555Z,3.80
2022-11-16T16:56:44.052Z,3.70
2022-11-16T16:59:29.875Z,3.60
2022-11-16T17:02:16.449Z,3.60
2022-11-16T17:05:02.360Z,3.50
2022-11-16T17:07:47.610Z,3.50
2022-11-16T17:10:32.933Z,3.50
2022-11-16T17:13:18.996Z,3.50
2022-11-16T17:16:05.876Z,3.50
2022-11-16T17:18:57.475Z,3.40
2022-11-16T17:21:42.953Z,3.40
2022-11-16T17:24:28.522Z,3.40
2022-11-16T17:27:14.219Z,3.40
2022-11-16T17:30:00.116Z,3.30
2022-11-16T17:32:45.945Z,3.30
2022-11-16T17:35:31.544Z,3.30
2022-11-16T17:38:16.826Z,3.30
2022-11-16T17:41:22.018Z,3.20
2022-11-16T17:44:08.530Z,3.20
2022-11-16T17:46:54.238Z,3.10
